Terminal Aerodrome Forecast
Issued by NWS Grand Forks, ND

Home | Current Version | Previous Version | Text Only | Print | Product List | Glossary Off
Versions: 1 2 3 4 5 6 7 8 9 10 11 12 13 14 15 16 17

000
FTUS43 KFGF 032320
TAFGFK
TAF
KGFK 032320Z 0400/0424 VRB06KT 3SM HZ SCT250
      TEMPO 0403/0406 5SM HZ
     FM041500 18010KT P6SM SKC=

USA.gov is the U.S. government's official web portal to all federal, state and local government web resources and services.